Time;durP1;ratioP1;P1;durP2;ratioP2;P2;SDS_P1;SDS_P2;PMS_P1;PMS_P2;Temp;Humidity;BMP_temperature;BMP_pressure;BME280_temperature;BME280_humidity;BME280_pressure;Samples;Min_cycle;Max_cycle;Signal;HPM_P1;HPM_P2
2022/03/08 00:02:06;;;;;;;;;;;0.70;99.90;;;;;;5059540;28;20128;-85
2022/03/08 00:04:50;;;;;;;23.13;9.25;;;0.70;99.90;;;;;;5059999;28;20023;-86
2022/03/08 00:07:34;;;;;;;23.13;10.03;;;1.90;99.90;;;;;;5075045;28;20067;-85
2022/03/08 00:10:19;;;;;;;25.57;12.03;;;0.70;99.90;;;;;;5074469;28;20401;-85
2022/03/08 00:13:03;;;;;;;30.97;13.03;;;0.70;99.90;;;;;;5073213;28;20537;-85
2022/03/08 00:15:49;;;;;;;18.60;9.80;;;0.60;99.90;;;;;;5058677;28;20040;-85
2022/03/08 00:18:33;;;;;;;18.33;8.67;;;0.50;99.90;;;;;;5072494;28;20567;-86
2022/03/08 00:21:17;;;;;;;;;;;0.50;99.90;;;;;;5090456;28;20112;-85
2022/03/08 00:24:01;;;;;;;;;;;0.40;99.90;;;;;;5093777;28;20379;-85
2022/03/08 00:26:46;;;;;;;14.48;7.43;;;0.40;99.90;;;;;;5092709;28;19999;-85
2022/03/08 00:29:30;;;;;;;12.27;6.90;;;0.30;99.90;;;;;;5092763;28;20081;-84
2022/03/08 00:32:14;;;;;;;15.45;7.65;;;0.30;99.90;;;;;;5093267;28;20047;-84
2022/03/08 00:34:59;;;;;;;14.70;8.17;;;0.20;99.90;;;;;;5078867;28;20116;-84
2022/03/08 00:37:44;;;;;;;12.67;7.57;;;0.20;99.90;;;;;;5093264;28;20138;-85
2022/03/08 00:40:28;;;;;;;18.40;9.40;;;0.10;99.90;;;;;;5093603;28;20038;-86
2022/03/08 00:43:12;;;;;;;22.88;10.27;;;0.60;99.90;;;;;;5093019;28;20051;-84
2022/03/08 00:45:57;;;;;;;17.20;8.67;;;-0.10;99.90;;;;;;5093057;28;20086;-84
2022/03/08 00:48:42;;;;;;;17.77;8.67;;;0.50;99.90;;;;;;5092244;28;20051;-84
2022/03/08 00:51:26;;;;;;;15.43;8.17;;;-0.20;99.90;;;;;;5092725;28;20042;-85
2022/03/08 00:54:11;;;;;;;15.60;8.60;;;-0.20;99.90;;;;;;5093419;28;20173;-85
2022/03/08 00:56:55;;;;;;;13.03;8.23;;;-0.30;99.90;;;;;;5093524;28;20055;-85
2022/03/08 00:59:40;;;;;;;14.03;7.73;;;-0.30;99.90;;;;;;5091867;28;20067;-85
2022/03/08 01:02:24;;;;;;;15.07;8.03;;;-0.40;99.90;;;;;;5078428;28;20101;-84
2022/03/08 01:05:09;;;;;;;11.53;7.03;;;-0.40;99.90;;;;;;5074176;28;20036;-85
2022/03/08 01:07:54;;;;;;;13.00;7.20;;;0.20;99.90;;;;;;5089669;28;20093;-85
2022/03/08 01:10:38;;;;;;;14.00;8.47;;;-0.40;99.90;;;;;;5092823;28;20083;-84
2022/03/08 01:13:22;;;;;;;14.07;8.32;;;-0.50;99.90;;;;;;5093377;28;20133;-84
2022/03/08 01:16:06;;;;;;;12.83;7.93;;;-0.50;99.90;;;;;;5063165;28;20050;-84
2022/03/08 01:18:51;;;;;;;11.43;7.17;;;-0.30;99.90;;;;;;5077350;28;20451;-85
2022/03/08 01:21:36;;;;;;;12.67;7.10;;;-0.50;99.90;;;;;;5091467;28;20059;-85
2022/03/08 01:24:21;;;;;;;14.27;7.87;;;-0.40;99.90;;;;;;5092232;28;20124;-85
2022/03/08 01:27:05;;;;;;;13.30;8.47;;;-0.60;99.90;;;;;;5092250;28;20062;-85
2022/03/08 01:29:49;;;;;;;16.67;7.37;;;-0.60;99.90;;;;;;5077287;28;20545;-85
2022/03/08 01:32:33;;;;;;;12.00;6.57;;;1.00;99.90;;;;;;5092744;28;20086;-85
2022/03/08 01:35:18;;;;;;;16.40;6.67;;;-0.70;99.90;;;;;;5092975;28;20039;-85
2022/03/08 01:38:03;;;;;;;12.70;7.30;;;-0.60;99.90;;;;;;5071673;28;20044;-85
2022/03/08 01:40:48;;;;;;;12.43;6.53;;;-0.60;99.90;;;;;;5071108;28;20089;-85
2022/03/08 01:43:32;;;;;;;12.30;6.93;;;-0.70;99.90;;;;;;5072644;28;20041;-86
2022/03/08 01:46:17;;;;;;;11.17;6.27;;;-0.60;99.90;;;;;;5071674;28;20059;-85
2022/03/08 01:49:01;;;;;;;10.20;6.57;;;0.10;99.90;;;;;;5057204;28;20071;-85
2022/03/08 01:51:46;;;;;;;15.70;7.10;;;-0.70;99.90;;;;;;5070339;28;20559;-85
2022/03/08 01:54:30;;;;;;;;;;;-0.60;99.90;;;;;;5056375;28;20154;-85
2022/03/08 01:57:14;;;;;;;13.27;7.30;;;-0.60;99.90;;;;;;5072487;28;20287;-85
2022/03/08 01:59:58;;;;;;;;;;;0.40;99.90;;;;;;5072034;28;20059;-85
2022/03/08 02:02:42;;;;;;;13.00;7.20;;;-0.40;99.90;;;;;;5070764;28;19919;-85
2022/03/08 02:05:28;;;;;;;12.20;6.13;;;-0.60;99.90;;;;;;5057218;28;20040;-85
2022/03/08 02:08:13;;;;;;;13.87;7.40;;;-0.60;99.90;;;;;;5090842;28;20089;-85
2022/03/08 02:10:58;;;;;;;11.97;7.00;;;-0.60;99.90;;;;;;5079658;28;20040;-85
2022/03/08 02:13:43;;;;;;;14.10;7.00;;;-0.60;99.90;;;;;;5071720;28;20116;-85
2022/03/08 02:16:27;;;;;;;13.87;8.10;;;-0.60;99.90;;;;;;5057212;28;20405;-85
2022/03/08 02:19:12;;;;;;;;;;;-0.30;99.90;;;;;;5071530;28;20186;-86
2022/03/08 02:21:56;;;;;;;;;;;0.10;99.90;;;;;;5072082;28;19915;-86
2022/03/08 02:24:40;;;;;;;14.25;6.53;;;-0.70;99.90;;;;;;5070843;28;19977;-86
2022/03/08 02:27:25;;;;;;;13.80;7.13;;;-0.60;99.90;;;;;;5074628;28;20146;-85
2022/03/08 02:30:12;;;;;;;;;;;0.30;99.90;;;;;;5075695;28;20133;-86
2022/03/08 02:32:56;;;;;;;14.00;7.13;;;-0.70;99.90;;;;;;5075679;28;19916;-85
2022/03/08 02:35:40;;;;;;;13.93;7.70;;;-0.70;99.90;;;;;;5076085;28;20059;-86
2022/03/08 02:38:24;;;;;;;;;;;-0.10;99.90;;;;;;5075432;28;20044;-85
2022/03/08 02:41:09;;;;;;;13.00;7.47;;;-0.70;99.90;;;;;;5076213;28;19954;-85
2022/03/08 02:43:53;;;;;;;13.13;7.10;;;-0.70;99.90;;;;;;5075467;28;20079;-86
2022/03/08 02:46:37;;;;;;;13.57;7.50;;;-0.70;99.90;;;;;;5075888;28;20070;-86
2022/03/08 02:49:21;;;;;;;;;;;-0.20;99.90;;;;;;5061110;28;20046;-85
2022/03/08 02:52:05;;;;;;;16.80;7.40;;;0.00;99.90;;;;;;5074358;28;20167;-86
2022/03/08 02:54:49;;;;;;;12.67;6.93;;;-0.80;99.90;;;;;;5060236;28;20503;-85
2022/03/08 02:57:34;;;;;;;12.63;7.73;;;-0.80;99.90;;;;;;5075547;28;20170;-85
2022/03/08 03:00:20;;;;;;;16.90;8.30;;;-0.90;99.90;;;;;;5074840;28;20055;-85
2022/03/08 03:03:06;;;;;;;16.50;8.20;;;0.50;99.90;;;;;;5075038;28;20116;-85
2022/03/08 03:05:50;;;;;;;14.07;8.03;;;0.60;99.90;;;;;;5075074;28;20035;-85
2022/03/08 03:08:34;;;;;;;14.13;8.63;;;-0.90;99.90;;;;;;5060470;28;20411;-85
2022/03/08 03:11:19;;;;;;;15.83;7.77;;;-0.90;99.90;;;;;;5060409;28;20043;-86
2022/03/08 03:14:03;;;;;;;13.30;7.43;;;0.20;99.90;;;;;;5059743;28;20121;-86
2022/03/08 03:16:47;;;;;;;;;;;-0.90;99.90;;;;;;5075473;28;20039;-85
2022/03/08 03:19:31;;;;;;;12.13;7.32;;;-0.90;99.90;;;;;;5077241;28;20292;-86
2022/03/08 03:22:15;;;;;;;;;;;-1.00;99.90;;;;;;5080810;28;20039;-86
2022/03/08 03:25:00;;;;;;;8.43;4.80;;;-1.00;99.90;;;;;;5094875;28;19914;-85
2022/03/08 03:27:45;;;;;;;13.00;8.10;;;-1.10;99.90;;;;;;5094388;28;20043;-85
2022/03/08 03:30:29;;;;;;;15.77;7.70;;;-1.10;99.90;;;;;;5094350;28;20078;-84
2022/03/08 03:33:13;;;;;;;;;;;-1.10;99.90;;;;;;5094447;28;20038;-86
2022/03/08 03:35:58;;;;;;;14.60;8.10;;;0.50;99.90;;;;;;5089451;28;19915;-85
2022/03/08 03:38:42;;;;;;;;;;;-1.10;99.90;;;;;;5059117;28;20047;-85
2022/03/08 03:41:26;;;;;;;12.57;7.22;;;-1.10;99.90;;;;;;5073994;28;19965;-86
2022/03/08 03:44:10;;;;;;;16.77;8.52;;;-0.80;99.90;;;;;;5074301;28;20039;-85
2022/03/08 03:46:55;;;;;;;14.83;7.70;;;-1.20;99.90;;;;;;5059247;28;20040;-85
2022/03/08 03:49:38;;;;;;;;;;;-1.20;99.90;;;;;;5075294;28;20154;-86
2022/03/08 03:52:23;;;;;;;16.38;8.07;;;-0.80;99.90;;;;;;5073840;28;19919;-86
2022/03/08 03:55:07;;;;;;;;;;;-1.00;99.90;;;;;;5080859;28;20061;-86
2022/03/08 03:57:52;;;;;;;16.90;9.65;;;-1.20;99.90;;;;;;5093474;28;20391;-86
2022/03/08 04:00:36;;;;;;;11.90;7.37;;;-1.20;99.90;;;;;;5079409;28;20039;-86
2022/03/08 04:03:20;;;;;;;15.07;8.57;;;0.00;99.90;;;;;;5087082;28;20116;-86
2022/03/08 04:06:05;;;;;;;14.17;8.10;;;0.20;99.90;;;;;;5072858;28;20040;-86
2022/03/08 04:08:50;;;;;;;13.80;8.37;;;-1.10;99.90;;;;;;5074441;28;20047;-86
2022/03/08 04:11:34;;;;;;;14.40;7.70;;;-1.10;99.90;;;;;;5074486;28;20039;-85
2022/03/08 04:14:18;;;;;;;;;;;-1.10;99.90;;;;;;5074359;28;20412;-86
2022/03/08 04:17:03;;;;;;;;;;;-0.20;99.90;;;;;;5073173;28;20110;-86
2022/03/08 04:19:47;;;;;;;;;;;-1.10;99.90;;;;;;5078846;28;20280;-86
2022/03/08 04:22:32;;;;;;;15.20;8.30;;;-0.50;99.90;;;;;;5079180;28;20414;-85
2022/03/08 04:25:16;;;;;;;16.70;8.43;;;-1.10;99.90;;;;;;5093738;28;20097;-86
2022/03/08 04:28:05;;;;;;;18.90;9.57;;;-0.50;99.90;;;;;;5092789;28;20066;-85
2022/03/08 04:30:49;;;;;;;17.80;8.83;;;-1.10;99.90;;;;;;5093296;28;20043;-86
2022/03/08 04:33:34;;;;;;;16.90;8.73;;;0.50;99.90;;;;;;5093446;28;20419;-86
2022/03/08 04:36:18;;;;;;;;;;;-0.10;99.90;;;;;;5093971;28;20165;-86
2022/03/08 04:39:03;;;;;;;11.50;6.32;;;0.30;99.90;;;;;;5078115;28;19927;-86
2022/03/08 04:41:48;;;;;;;15.53;8.73;;;;;;;;;;5092925;28;20450;-86
2022/03/08 04:44:32;;;;;;;15.77;9.00;;;-1.20;99.90;;;;;;5092902;28;20062;-86
2022/03/08 04:47:16;;;;;;;;;;;-1.20;99.90;;;;;;5092758;28;20885;-86
2022/03/08 04:50:00;;;;;;;16.50;9.50;;;-1.20;99.90;;;;;;5093123;28;19915;-86
2022/03/08 04:52:45;;;;;;;;;;;0.60;99.90;;;;;;5093129;28;20499;-85
2022/03/08 04:55:29;;;;;;;;;;;-1.30;99.90;;;;;;5094183;28;20283;-86
2022/03/08 04:58:13;;;;;;;14.75;9.73;;;-1.30;99.90;;;;;;5077515;28;19927;-86
2022/03/08 05:00:57;;;;;;;15.97;9.80;;;0.40;99.90;;;;;;5092618;28;20111;-86
2022/03/08 05:03:42;;;;;;;;;;;-1.30;99.90;;;;;;5081250;28;20040;-86
2022/03/08 05:06:30;;;;;;;20.13;9.20;;;-1.30;99.90;;;;;;5073752;28;19954;-86
2022/03/08 05:09:14;;;;;;;20.80;10.10;;;0.90;99.90;;;;;;5071729;28;20047;-86
2022/03/08 05:11:58;;;;;;;16.07;9.30;;;-1.30;99.90;;;;;;5058133;28;20036;-86
2022/03/08 05:14:42;;;;;;;17.70;10.00;;;-1.30;99.90;;;;;;5072183;28;20035;-86
2022/03/08 05:17:27;;;;;;;20.30;10.10;;;-1.30;99.90;;;;;;5057864;28;20055;-85
2022/03/08 05:20:12;;;;;;;17.77;9.70;;;-1.30;99.90;;;;;;5044913;28;20051;-86
2022/03/08 05:22:56;;;;;;;19.33;10.60;;;-1.30;99.90;;;;;;5071931;28;20079;-86
2022/03/08 05:25:42;;;;;;;15.33;9.10;;;-0.30;99.90;;;;;;5072847;28;20112;-86
2022/03/08 05:28:26;;;;;;;17.70;10.40;;;-0.70;99.90;;;;;;5057412;28;20052;-86
2022/03/08 05:31:10;;;;;;;16.70;10.83;;;-1.20;99.90;;;;;;5071344;28;20049;-86
2022/03/08 05:33:58;;;;;;;18.80;10.87;;;-0.50;99.90;;;;;;5084601;28;20068;-86
2022/03/08 05:36:42;;;;;;;20.00;11.10;;;-1.30;99.90;;;;;;5092922;28;20058;-86
2022/03/08 05:39:26;;;;;;;;;;;0.20;99.90;;;;;;5091697;28;20039;-85
2022/03/08 05:42:11;;;;;;;12.98;7.00;;;;;;;;;;5089480;28;19957;-85
2022/03/08 05:44:55;;;;;;;15.50;9.23;;;;;;;;;;5091306;28;20046;-86
2022/03/08 05:47:41;;;;;;;19.03;10.23;;;-1.10;99.90;;;;;;5090924;28;20112;-84
2022/03/08 05:50:25;;;;;;;20.83;11.13;;;-1.30;99.90;;;;;;5090020;28;20169;-86
2022/03/08 05:53:10;;;;;;;19.63;10.40;;;-1.40;99.90;;;;;;5084088;28;20047;-85
2022/03/08 05:55:54;;;;;;;;;;;-1.40;99.90;;;;;;5081312;28;20089;-83
2022/03/08 05:58:38;;;;;;;17.90;10.43;;;-1.40;99.90;;;;;;5076277;28;19953;-85
2022/03/08 06:01:22;;;;;;;18.67;10.47;;;-1.50;99.90;;;;;;5071274;28;20032;-84
2022/03/08 06:04:06;;;;;;;;;;;-1.50;99.90;;;;;;5069052;28;20534;-85
2022/03/08 06:06:52;;;;;;;21.30;11.38;;;-0.20;99.90;;;;;;5070490;28;20041;-86
2022/03/08 06:09:37;;;;;;;19.37;10.53;;;-1.50;99.90;;;;;;5069411;28;20039;-86
2022/03/08 06:12:21;;;;;;;19.13;10.53;;;-1.40;99.90;;;;;;5068804;28;20051;-86
2022/03/08 06:15:06;;;;;;;23.77;11.07;;;-0.30;99.90;;;;;;5069399;28;20123;-85
2022/03/08 06:17:50;;;;;;;18.50;10.07;;;;;;;;;;5069338;28;20089;-86
2022/03/08 06:20:35;;;;;;;19.40;11.17;;;-1.30;99.90;;;;;;5071016;28;20051;-86
2022/03/08 06:23:19;;;;;;;17.87;10.10;;;-1.20;99.90;;;;;;5070751;28;20068;-86
2022/03/08 06:26:03;;;;;;;24.73;11.38;;;-1.20;99.90;;;;;;5071183;28;20083;-85
2022/03/08 06:28:47;;;;;;;20.53;11.20;;;-1.20;99.90;;;;;;5072279;28;20499;-86
2022/03/08 06:31:31;;;;;;;19.50;11.55;;;-0.60;99.90;;;;;;5070605;28;20039;-86
2022/03/08 06:34:16;;;;;;;20.07;11.50;;;-1.20;99.90;;;;;;5070660;28;20044;-85
2022/03/08 06:37:00;;;;;;;;;;;1.60;99.90;;;;;;5070251;28;20039;-86
2022/03/08 06:39:45;;;;;;;20.00;11.98;;;-1.20;99.90;;;;;;5068781;28;20003;-86
2022/03/08 06:42:30;;;;;;;19.80;11.27;;;;;;;;;;5069518;28;20047;-87
2022/03/08 06:45:15;;;;;;;20.60;10.70;;;;;;;;;;5068789;28;20113;-85
2022/03/08 06:47:59;;;;;;;19.10;10.90;;;-1.20;99.90;;;;;;5071566;28;20442;-86
2022/03/08 06:50:44;;;;;;;21.83;12.40;;;-1.10;99.90;;;;;;5056830;28;20044;-86
2022/03/08 06:53:28;;;;;;;22.03;11.60;;;-1.10;99.90;;;;;;5070552;28;20044;-86
2022/03/08 06:56:12;;;;;;;20.77;11.47;;;0.60;99.90;;;;;;5056839;28;20470;-84
2022/03/08 06:58:57;;;;;;;18.40;11.10;;;-0.80;99.90;;;;;;5070784;28;20404;-85
2022/03/08 07:01:41;;;;;;;20.90;11.33;;;;;;;;;;5072142;28;20055;-85
2022/03/08 07:04:26;;;;;;;22.83;11.83;;;;;;;;;;5070345;28;20032;-86
2022/03/08 07:07:10;;;;;;;18.13;11.90;;;-0.70;99.90;;;;;;5070903;28;20488;-86
2022/03/08 07:09:55;;;;;;;17.43;10.63;;;-0.60;99.90;;;;;;5071717;28;20048;-86
2022/03/08 07:12:39;;;;;;;21.70;11.20;;;-0.50;99.90;;;;;;5073343;28;20089;-85
2022/03/08 07:15:24;;;;;;;17.40;10.40;;;0.40;99.90;;;;;;5074024;28;20043;-85
2022/03/08 07:18:08;;;;;;;;;;;-0.20;99.90;;;;;;5075714;28;20128;-88
2022/03/08 07:20:52;;;;;;;18.60;11.17;;;0.00;99.90;;;;;;5074454;28;20037;-86
2022/03/08 07:23:37;;;;;;;;;;;1.10;99.90;;;;;;5075142;28;20039;-88
2022/03/08 07:26:21;;;;;;;17.73;10.63;;;0.80;99.90;;;;;;5073746;28;20446;-85
2022/03/08 07:29:05;;;;;;;17.50;10.50;;;0.40;99.90;;;;;;5060075;28;20090;-85
2022/03/08 07:31:50;;;;;;;24.23;10.87;;;1.30;99.90;;;;;;5060188;28;20093;-85
2022/03/08 07:34:34;;;;;;;;;;;0.80;99.90;;;;;;5074018;28;20500;-84
2022/03/08 07:37:18;;;;;;;12.32;8.20;;;1.40;99.90;;;;;;5073879;28;19935;-84
2022/03/08 07:40:07;;;;;;;15.63;10.60;;;2.80;99.90;;;;;;5074884;28;20127;-84
2022/03/08 07:42:51;;;;;;;15.30;10.93;;;4.20;99.90;;;;;;5073899;28;20039;-83
2022/03/08 07:45:36;;;;;;;16.00;11.00;;;5.40;99.90;;;;;;5059242;28;20044;-84
2022/03/08 07:48:20;;;;;;;14.85;9.68;;;6.50;99.90;;;;;;5045563;28;20043;-84
2022/03/08 07:51:05;;;;;;;17.73;10.45;;;7.20;99.90;;;;;;5073994;28;20047;-84
2022/03/08 07:53:49;;;;;;;;;;;7.90;99.90;;;;;;5075136;28;20070;-84
2022/03/08 07:56:33;;;;;;;14.55;9.95;;;8.40;99.40;;;;;;5058945;28;20000;-84
2022/03/08 07:59:17;;;;;;;15.93;10.52;;;8.80;98.50;;;;;;5073390;28;20067;-84
2022/03/08 08:02:02;;;;;;;16.00;9.60;;;9.20;97.10;;;;;;5074643;28;20400;-83
2022/03/08 08:04:46;;;;;;;14.98;9.50;;;9.50;94.70;;;;;;5073094;28;20090;-83
2022/03/08 08:07:30;;;;;;;;;;;9.80;93.00;;;;;;5074506;28;20059;-83
2022/03/08 08:10:14;;;;;;;12.15;8.38;;;10.00;91.80;;;;;;5073389;28;19990;-83
2022/03/08 08:12:59;;;;;;;14.60;9.93;;;9.80;90.60;;;;;;5074392;28;20038;-83
2022/03/08 08:15:43;;;;;;;13.75;8.50;;;9.50;89.30;;;;;;5072736;28;20098;-83
2022/03/08 08:18:27;;;;;;;16.08;9.13;;;9.00;88.40;;;;;;5072621;28;20047;-83
2022/03/08 08:21:12;;;;;;;14.07;9.02;;;8.40;89.60;;;;;;5073265;28;20102;-84
2022/03/08 08:23:56;;;;;;;13.95;9.30;;;8.20;90.70;;;;;;5073597;28;20119;-84
2022/03/08 08:26:40;;;;;;;;;;;7.90;91.50;;;;;;5074173;28;20086;-83
2022/03/08 08:29:24;;;;;;;13.68;8.57;;;8.10;92.40;;;;;;5073158;28;19919;-85
2022/03/08 08:32:08;;;;;;;14.07;9.57;;;8.40;92.00;;;;;;5073224;28;20043;-83
2022/03/08 08:34:53;;;;;;;11.43;8.15;;;8.70;90.80;;;;;;5073953;28;20083;-84
2022/03/08 08:37:37;;;;;;;11.73;8.30;;;8.90;89.30;;;;;;5058265;28;20500;-84
2022/03/08 08:40:22;;;;;;;12.18;8.57;;;9.00;87.70;;;;;;5058750;28;20106;-84
2022/03/08 08:43:06;;;;;;;;;;;9.00;86.90;;;;;;5059075;28;20553;-84
2022/03/08 08:45:52;;;;;;;12.88;8.38;;;8.70;83.20;;;;;;5072411;28;19962;-84
2022/03/08 08:48:37;;;;;;;11.85;7.57;;;;;;;;;;5073073;28;20090;-83
2022/03/08 08:51:21;;;;;;;11.40;8.50;;;7.40;89.80;;;;;;5073699;28;20040;-84
2022/03/08 08:54:06;;;;;;;11.45;8.57;;;;;;;;;;5058462;28;20043;-84
2022/03/08 08:56:50;;;;;;;12.95;8.55;;;7.50;91.50;;;;;;5058015;28;20048;-84
2022/03/08 08:59:35;;;;;;;11.00;8.25;;;8.70;91.50;;;;;;5071756;28;20058;-83
2022/03/08 09:02:19;;;;;;;11.40;7.75;;;8.50;89.80;;;;;;5072503;28;20128;-84
2022/03/08 09:05:04;;;;;;;10.68;7.93;;;8.90;88.20;;;;;;5058364;28;20128;-84
2022/03/08 09:07:48;;;;;;;11.70;8.07;;;8.90;87.10;;;;;;5057663;28;20119;-85
2022/03/08 09:10:33;;;;;;;12.90;7.90;;;9.20;86.40;;;;;;5071644;28;20128;-83
2022/03/08 09:13:17;;;;;;;14.55;9.52;;;8.70;86.20;;;;;;5072199;28;20044;-83
2022/03/08 09:16:02;;;;;;;11.40;8.32;;;9.10;88.00;;;;;;5044252;28;20047;-83
2022/03/08 09:18:48;;;;;;;12.70;8.88;;;8.30;88.00;;;;;;5072466;28;20094;-84
2022/03/08 09:21:32;;;;;;;10.65;7.93;;;8.00;88.10;;;;;;5072641;28;20098;-85
2022/03/08 09:24:16;;;;;;;10.82;7.97;;;7.80;88.20;;;;;;5057780;28;20075;-85
2022/03/08 09:27:01;;;;;;;;;;;7.70;87.40;;;;;;5072367;28;20040;-85
2022/03/08 09:29:46;;;;;;;10.52;7.55;;;;;;;;;;5072317;28;19966;-84
2022/03/08 09:32:30;;;;;;;11.35;8.10;;;;;;;;;;5057899;28;20040;-84
2022/03/08 09:35:15;;;;;;;11.50;8.23;;;;;;;;;;5071302;28;20055;-85
2022/03/08 09:38:00;;;;;;;10.73;6.80;;;;;;;;;;5071480;28;20036;-84
2022/03/08 09:40:45;;;;;;;10.82;7.60;;;;;;;;;;5072115;28;20115;-84
2022/03/08 09:43:30;;;;;;;10.70;6.43;;;7.70;85.90;;;;;;5072760;28;20085;-84
2022/03/08 09:46:15;;;;;;;10.30;6.85;;;;;;;;;;5057873;28;20116;-84
2022/03/08 09:48:59;;;;;;;9.10;7.20;;;;;;;;;;5071190;28;20055;-85
2022/03/08 09:51:44;;;;;;;9.68;6.80;;;;;;;;;;5071091;28;20078;-85
2022/03/08 09:54:29;;;;;;;8.07;6.40;;;;;;;;;;5071568;28;20503;-84
2022/03/08 09:57:15;;;;;;;11.88;7.13;;;8.20;84.70;;;;;;5071563;28;20503;-84
2022/03/08 09:59:59;;;;;;;10.02;6.60;;;;;;;;;;5070599;28;20051;-85
2022/03/08 10:02:52;;;;;;;8.27;5.72;;;8.50;84.20;;;;;;5070809;28;20114;-83
2022/03/08 10:05:40;;;;;;;10.75;6.10;;;;;;;;;;5057112;28;20103;-86
2022/03/08 10:08:26;;;;;;;9.68;5.68;;;9.20;78.90;;;;;;5072420;28;20034;-84
2022/03/08 10:11:12;;;;;;;8.95;5.93;;;9.20;79.40;;;;;;5071434;28;20039;-83
2022/03/08 10:13:57;;;;;;;8.68;5.70;;;;;;;;;;5070757;28;20051;-85
2022/03/08 10:16:42;;;;;;;9.30;5.38;;;;;;;;;;5070680;28;20055;-83
2022/03/08 10:19:27;;;;;;;7.05;5.57;;;;;;;;;;5071288;28;20512;-83
2022/03/08 10:22:36;;;;;;;8.82;5.50;;;10.50;71.80;;;;;;5072546;28;20078;-85
2022/03/08 10:25:27;;;;;;;8.57;5.38;;;10.90;67.70;;;;;;5072247;28;20031;-84
2022/03/08 10:28:11;;;;;;;6.85;5.40;;;;;;;;;;5072166;28;20606;-83
2022/03/08 10:30:55;;;;;;;9.27;5.32;;;;;;;;;;5070508;28;20822;-84
2022/03/08 10:33:40;;;;;;;11.38;5.22;;;10.40;68.40;;;;;;5072078;28;20048;-85
2022/03/08 10:36:26;;;;;;;7.28;4.53;;;;;;;;;;5071165;28;20039;-84
2022/03/08 10:39:15;;;;;;;7.20;5.35;;;10.20;70.20;;;;;;5071119;28;20051;-85
2022/03/08 10:42:00;;;;;;;7.70;4.68;;;;;;;;;;5070469;28;20091;-83
2022/03/08 10:44:45;;;;;;;7.53;5.47;;;;;;;;;;5070420;28;20082;-83
2022/03/08 10:47:40;;;;;;;8.55;5.55;;;10.10;68.30;;;;;;5072815;28;20090;-83
2022/03/08 10:50:31;;;;;;;8.52;5.50;;;10.10;68.60;;;;;;5074953;28;20396;-83
2022/03/08 10:53:15;;;;;;;7.40;5.20;;;10.30;69.20;;;;;;5076074;28;20035;-83
2022/03/08 10:55:59;;;;;;;;;;;10.50;67.50;;;;;;5060499;28;20515;-83
2022/03/08 10:58:49;;;;;;;6.80;5.22;;;10.80;66.60;;;;;;5074353;28;20434;-85
2022/03/08 11:01:34;;;;;;;11.13;4.78;;;11.20;66.40;;;;;;5074800;28;20138;-84
2022/03/08 11:04:23;;;;;;;9.73;5.45;;;11.80;64.10;;;;;;5074747;28;20039;-83
2022/03/08 11:07:08;;;;;;;7.80;5.38;;;;;;;;;;5075162;28;20047;-83
2022/03/08 11:09:52;;;;;;;7.18;4.63;;;;;;;;;;5074613;28;20404;-84
2022/03/08 11:12:38;;;;;;;7.72;5.63;;;11.00;64.60;;;;;;5074658;28;20624;-83
2022/03/08 11:15:23;;;;;;;7.28;4.82;;;10.90;65.00;;;;;;5074593;28;20124;-81
2022/03/08 11:18:09;;;;;;;9.57;4.47;;;10.90;64.40;;;;;;5073782;28;20106;-83
2022/03/08 11:20:56;;;;;;;6.05;4.53;;;10.80;63.30;;;;;;5074716;28;20056;-83
2022/03/08 11:23:43;;;;;;;5.97;4.45;;;10.60;62.50;;;;;;5075215;28;20123;-82
2022/03/08 11:26:28;;;;;;;6.10;4.45;;;;;;;;;;5075438;28;20102;-84
2022/03/08 11:29:13;;;;;;;9.45;4.90;;;10.90;60.30;;;;;;5074177;28;20496;-83
2022/03/08 11:32:00;;;;;;;9.18;5.88;;;10.90;61.90;;;;;;5059585;28;20062;-84
2022/03/08 11:34:56;;;;;;;6.70;4.63;;;10.90;62.50;;;;;;5075153;28;20043;-82
2022/03/08 11:37:44;;;;;;;6.85;4.60;;;10.90;61.20;;;;;;5075044;28;20036;-84
2022/03/08 11:40:32;;;;;;;8.93;4.82;;;10.90;63.10;;;;;;5074118;28;20409;-84
2022/03/08 11:43:17;;;;;;;7.10;5.03;;;11.00;62.50;;;;;;5074077;28;20032;-84
2022/03/08 11:46:19;;;;;;;7.30;5.55;;;10.90;63.20;;;;;;5074212;28;20047;-84
2022/03/08 11:49:04;;;;;;;7.50;4.53;;;11.00;62.90;;;;;;5074273;28;20093;-83
2022/03/08 11:52:13;;;;;;;8.63;5.15;;;11.00;62.70;;;;;;5059468;28;20093;-87
2022/03/08 11:55:16;;;;;;;6.70;4.47;;;11.00;61.00;;;;;;5073220;28;20043;-82
2022/03/08 11:58:04;;;;;;;7.95;4.38;;;11.00;62.50;;;;;;5072447;28;20116;-82
2022/03/08 12:00:57;;;;;;;5.68;4.80;;;10.90;61.00;;;;;;5073581;28;20102;-83
2022/03/08 12:03:41;;;;;;;7.30;4.70;;;10.80;61.60;;;;;;5074580;28;20043;-83
2022/03/08 12:06:35;;;;;;;6.65;4.32;;;10.90;62.10;;;;;;5073518;28;20071;-84
2022/03/08 12:09:22;;;;;;;6.18;4.20;;;11.00;61.70;;;;;;5074606;28;20055;-84
2022/03/08 12:12:06;;;;;;;7.35;4.85;;;11.10;61.40;;;;;;5074001;28;20124;-83
2022/03/08 12:14:51;;;;;;;7.00;4.13;;;11.20;60.40;;;;;;5074407;28;20465;-84
2022/03/08 12:17:35;;;;;;;6.57;4.50;;;11.30;60.00;;;;;;5045260;28;20048;-82
2022/03/08 12:20:20;;;;;;;6.43;4.15;;;11.20;58.30;;;;;;5059209;28;20115;-83
2022/03/08 12:23:07;;;;;;;;;;;11.20;59.70;;;;;;5059026;28;20566;-83
2022/03/08 12:26:29;;;;;;;6.55;3.72;;;11.30;57.60;;;;;;5073272;28;20380;-83
2022/03/08 12:29:28;;;;;;;6.03;3.63;;;11.30;57.70;;;;;;5073676;28;20055;-84
2022/03/08 12:32:43;;;;;;;8.13;3.70;;;11.40;59.60;;;;;;5073630;28;20059;-84
2022/03/08 12:35:27;;;;;;;7.85;4.10;;;11.50;58.20;;;;;;5073960;28;20086;-82
2022/03/08 12:38:17;;;;;;;8.10;5.13;;;11.50;58.50;;;;;;5072365;28;20082;-82
2022/03/08 12:41:02;;;;;;;6.90;4.00;;;;;;;;;;5072259;28;20043;-83
2022/03/08 12:43:58;;;;;;;6.53;4.55;;;11.60;58.10;;;;;;5072794;28;20078;-84
2022/03/08 12:46:43;;;;;;;8.30;4.63;;;;;;;;;;5073966;28;20035;-83
2022/03/08 12:49:27;;;;;;;6.05;4.18;;;11.60;58.30;;;;;;5073920;28;20083;-82
2022/03/08 12:52:13;;;;;;;6.00;4.57;;;11.70;58.80;;;;;;5058043;28;20044;-82
2022/03/08 12:54:59;;;;;;;6.00;4.38;;;11.70;57.90;;;;;;5073153;28;20324;-84
2022/03/08 12:58:04;;;;;;;10.30;5.10;;;11.60;57.30;;;;;;5074435;28;20508;-86
2022/03/08 13:00:57;;;;;;;6.50;4.57;;;11.60;57.60;;;;;;5074644;28;20067;-82
2022/03/08 13:03:44;;;;;;;6.25;4.53;;;11.60;56.20;;;;;;5073694;28;20193;-83
2022/03/08 13:06:28;;;;;;;5.80;3.92;;;;;;;;;;5072983;28;20036;-82
2022/03/08 13:09:12;;;;;;;6.20;4.40;;;11.60;56.80;;;;;;5073144;28;20036;-83
2022/03/08 13:11:57;;;;;;;6.07;4.45;;;11.60;56.90;;;;;;5072669;28;20174;-82
2022/03/08 13:14:40;;;;;;;;;;;11.60;57.00;;;;;;5075057;28;20099;-84
2022/03/08 13:17:29;;;;;;;6.72;4.25;;;11.70;55.60;;;;;;5072782;28;19916;-84
2022/03/08 13:20:32;;;;;;;6.57;4.03;;;11.70;56.40;;;;;;5073105;28;20046;-83
2022/03/08 13:23:20;;;;;;;7.97;4.15;;;11.70;56.00;;;;;;5072497;28;20102;-83
2022/03/08 13:26:07;;;;;;;6.93;4.03;;;11.70;55.50;;;;;;5074862;28;20051;-82
2022/03/08 13:28:51;;;;;;;5.38;3.88;;;;;;;;;;5076995;28;20043;-84
2022/03/08 13:31:44;;;;;;;8.50;4.65;;;11.60;54.90;;;;;;5076698;28;20043;-85
2022/03/08 13:34:29;;;;;;;7.22;4.35;;;;;;;;;;5079369;28;20103;-85
2022/03/08 13:37:14;;;;;;;5.55;3.60;;;;;;;;;;5075100;28;20089;-83
2022/03/08 13:39:58;;;;;;;6.20;3.70;;;;;;;;;;5074009;28;20106;-83
2022/03/08 13:42:46;;;;;;;4.90;3.55;;;11.90;54.10;;;;;;5073086;28;20082;-83
2022/03/08 13:45:31;;;;;;;8.05;4.22;;;11.90;52.90;;;;;;5072409;28;20039;-83
2022/03/08 13:48:20;;;;;;;7.85;3.85;;;11.80;52.50;;;;;;5071016;28;20039;-83
2022/03/08 13:51:08;;;;;;;5.50;3.70;;;11.80;52.80;;;;;;5073691;28;20055;-86
2022/03/08 13:53:54;;;;;;;6.22;3.88;;;11.80;53.50;;;;;;5072862;28;20499;-83
2022/03/08 13:56:50;;;;;;;6.60;3.70;;;11.80;53.90;;;;;;5076605;28;20035;-84
2022/03/08 13:59:35;;;;;;;9.85;3.50;;;11.80;53.50;;;;;;5072480;28;20092;-82
2022/03/08 14:02:22;;;;;;;4.50;3.10;;;11.90;53.60;;;;;;5071916;28;20094;-83
2022/03/08 14:05:07;;;;;;;6.60;3.53;;;11.90;53.20;;;;;;5057117;28;20490;-86
2022/03/08 14:08:00;;;;;;;5.45;3.80;;;11.90;53.40;;;;;;5071337;28;20539;-83
2022/03/08 14:10:59;;;;;;;5.47;3.20;;;12.00;52.70;;;;;;5072421;28;20071;-85
2022/03/08 14:13:51;;;;;;;3.80;2.85;;;12.10;52.20;;;;;;5072316;28;20055;-82
2022/03/08 14:16:42;;;;;;;4.80;3.35;;;12.10;52.40;;;;;;5071510;28;20035;-83
2022/03/08 14:19:47;;;;;;;7.57;3.28;;;12.10;52.10;;;;;;5070676;28;20134;-83
2022/03/08 14:22:31;;;;;;;4.82;3.03;;;12.00;51.60;;;;;;5070676;28;20044;-83
2022/03/08 14:25:15;;;;;;;5.40;3.10;;;12.00;51.70;;;;;;5070706;28;20412;-84
2022/03/08 14:27:59;;;;;;;4.78;3.20;;;12.00;50.70;;;;;;5072202;28;20397;-82
2022/03/08 14:30:43;;;;;;;;;;;12.00;50.60;;;;;;5072643;28;20051;-81
2022/03/08 14:33:27;;;;;;;4.13;2.45;;;11.90;50.80;;;;;;5070647;28;20295;-84
2022/03/08 14:36:46;;;;;;;5.63;3.28;;;11.80;50.30;;;;;;5071665;28;20120;-83
2022/03/08 14:39:35;;;;;;;4.50;2.90;;;11.80;50.00;;;;;;5071471;28;20121;-84
2022/03/08 14:42:19;;;;;;;3.97;2.50;;;11.70;50.60;;;;;;5070467;28;20051;-83
2022/03/08 14:45:10;;;;;;;5.00;2.75;;;11.70;50.90;;;;;;5056989;28;20093;-84